Time;durP1;ratioP1;P1;durP2;ratioP2;P2;SDS_P1;SDS_P2;PMS_P1;PMS_P2;Temp;Humidity;BMP_temperature;BMP_pressure;BME280_temperature;BME280_humidity;BME280_pressure;Samples;Min_cycle;Max_cycle;Signal;HPM_P1;HPM_P2
2024/01/11 00:00:47;;;;;;;41.08;22.80;;;;;;;-6.22;73.53;102083.78;5073178;28;20409;-81
2024/01/11 00:03:50;;;;;;;;;;;;;;;-6.13;73.46;102076.53;5072778;28;20414;-81
2024/01/11 00:06:54;;;;;;;36.53;22.60;;;;;;;-6.20;74.03;102079.63;5073059;28;19962;-80
2024/01/11 00:09:57;;;;;;;43.40;23.13;;;;;;;-6.70;75.23;102073.28;5073052;28;20406;-80
2024/01/11 00:13:00;;;;;;;42.35;23.10;;;;;;;-6.75;75.50;102077.31;5074314;28;20042;-81
2024/01/11 00:16:04;;;;;;;41.30;22.90;;;;;;;-6.49;75.33;102080.97;5074301;28;20143;-80
2024/01/11 00:19:07;;;;;;;42.47;23.17;;;;;;;-6.49;74.93;102079.28;5075368;28;20145;-81
2024/01/11 00:22:11;;;;;;;38.20;23.92;;;;;;;-6.41;75.22;102083.06;5075246;28;20047;-80
2024/01/11 00:25:14;;;;;;;40.15;23.95;;;;;;;-6.39;75.10;102089.06;5077858;28;20043;-81
2024/01/11 00:28:20;;;;;;;37.37;22.73;;;;;;;-6.34;74.50;102087.59;5076910;28;20043;-81
2024/01/11 00:31:23;;;;;;;41.27;25.17;;;;;;;-6.28;74.45;102088.66;5075855;28;20051;-81
2024/01/11 00:34:26;;;;;;;42.13;22.90;;;;;;;-6.35;74.70;102083.31;5072911;28;20098;-80
2024/01/11 00:37:30;;;;;;;40.15;22.52;;;;;;;-6.40;74.50;102089.88;5073366;28;20106;-81
2024/01/11 00:40:33;;;;;;;48.45;25.77;;;;;;;-6.36;74.18;102086.63;5073048;28;20044;-81
2024/01/11 00:43:36;;;;;;;;;;;;;;;-6.34;74.13;102094.34;5075079;28;20120;-80
2024/01/11 00:46:40;;;;;;;38.75;22.77;;;;;;;-6.42;74.37;102096.56;5075547;28;20345;-80
2024/01/11 00:49:44;;;;;;;42.27;24.03;;;;;;;-6.54;74.47;102093.53;5072681;28;20074;-80
2024/01/11 00:52:47;;;;;;;41.58;25.35;;;;;;;-6.44;74.12;102085.47;5071869;28;20051;-80
2024/01/11 00:55:51;;;;;;;44.90;24.58;;;;;;;-6.50;74.52;102090.28;5071567;28;20089;-80
2024/01/11 00:58:54;;;;;;;42.42;22.73;;;;;;;-6.37;74.41;102084.03;5071506;28;20058;-81
2024/01/11 01:01:57;;;;;;;39.55;23.90;;;;;;;-6.56;74.94;102084.94;5071522;28;20048;-81
2024/01/11 01:05:01;;;;;;;44.42;25.33;;;;;;;-6.58;75.81;102089.09;5071832;28;20090;-81
2024/01/11 01:08:04;;;;;;;43.70;25.27;;;;;;;-6.68;75.52;102103.09;5072430;28;20056;-81
2024/01/11 01:11:07;;;;;;;45.15;23.85;;;;;;;-6.58;74.79;102099.25;5072314;28;20650;-81
2024/01/11 01:14:11;;;;;;;41.90;23.00;;;;;;;-6.58;75.00;102094.16;5071832;28;20101;-81
2024/01/11 01:17:14;;;;;;;;;;;;;;;-6.53;74.69;102091.84;5076862;28;20094;-81
2024/01/11 01:20:18;;;;;;;42.23;23.27;;;;;;;-6.62;74.88;102097.41;5076316;28;19923;-81
2024/01/11 01:23:21;;;;;;;39.92;23.42;;;;;;;-6.47;73.85;102102.28;5076331;28;20266;-81
2024/01/11 01:26:24;;;;;;;39.72;23.52;;;;;;;-6.58;74.10;102104.34;5075619;28;20048;-81
2024/01/11 01:29:28;;;;;;;47.80;23.98;;;;;;;-6.49;74.03;102103.88;5076489;28;20505;-81
2024/01/11 01:32:31;;;;;;;46.15;24.83;;;;;;;-6.51;74.15;102101.25;5075413;28;20040;-81
2024/01/11 01:35:34;;;;;;;44.97;22.80;;;;;;;-6.47;73.87;102108.25;5076079;28;20098;-80
2024/01/11 01:38:38;;;;;;;43.15;23.17;;;;;;;-6.44;73.67;102108.38;5075833;28;20040;-81
2024/01/11 01:41:41;;;;;;;44.80;25.42;;;;;;;-6.56;73.97;102111.25;5077088;28;20406;-81
2024/01/11 01:44:44;;;;;;;42.95;23.20;;;;;;;-6.52;74.08;102101.19;5076921;28;20565;-81
2024/01/11 01:47:47;;;;;;;44.63;24.17;;;;;;;-6.74;74.83;102112.13;5075262;28;20060;-81
2024/01/11 01:50:51;;;;;;;43.70;24.33;;;;;;;-6.67;74.64;102112.44;5075599;28;20516;-81
2024/01/11 01:53:57;;;;;;;43.38;23.65;;;;;;;-6.79;74.93;102112.81;5075843;28;20078;-81
2024/01/11 01:57:01;;;;;;;38.37;22.40;;;;;;;-7.13;75.92;102119.72;5075885;28;20109;-81
2024/01/11 02:00:05;;;;;;;43.50;23.87;;;;;;;-7.17;76.26;102115.31;5075619;28;20058;-81
2024/01/11 02:03:16;;;;;;;47.40;25.20;;;;;;;-7.01;76.51;102120.28;5075404;28;20511;-81
2024/01/11 02:06:23;;;;;;;43.57;23.93;;;;;;;-6.75;75.04;102125.66;5076521;28;20055;-80
2024/01/11 02:09:28;;;;;;;47.40;23.73;;;;;;;-6.72;74.94;102131.75;5080115;28;20174;-80
2024/01/11 02:12:31;;;;;;;43.93;23.57;;;;;;;-6.88;74.67;102127.66;5080535;28;20045;-80
2024/01/11 02:15:34;;;;;;;43.63;25.23;;;;;;;-6.87;74.98;102124.31;5076842;28;20138;-81
2024/01/11 02:18:37;;;;;;;43.17;24.60;;;;;;;-6.86;74.96;102120.97;5076855;28;20181;-81
2024/01/11 02:21:43;;;;;;;52.85;27.40;;;;;;;-6.89;74.60;102122.47;5075894;28;20562;-81
2024/01/11 02:24:46;;;;;;;40.43;24.87;;;;;;;-6.95;75.06;102117.16;5075175;28;20070;-81
2024/01/11 02:27:50;;;;;;;36.20;23.63;;;;;;;-6.90;74.70;102121.63;5074963;28;20102;-81
2024/01/11 02:30:53;;;;;;;39.47;23.37;;;;;;;-6.94;74.73;102124.84;5074370;28;20059;-81
2024/01/11 02:33:56;;;;;;;41.63;23.20;;;;;;;-6.93;74.83;102128.25;5074117;28;20048;-81
2024/01/11 02:37:00;;;;;;;43.20;24.48;;;;;;;-6.91;74.52;102119.88;5074500;28;20043;-82
2024/01/11 02:40:04;;;;;;;;;;;;;;;-6.81;74.38;102126.25;5074044;28;20086;-82
2024/01/11 02:43:09;;;;;;;47.33;24.07;;;;;;;-6.85;74.21;102135.41;5074530;28;20023;-81
2024/01/11 02:46:14;;;;;;;42.87;23.67;;;;;;;-6.73;73.57;102137.66;5073187;28;20047;-81
2024/01/11 02:49:17;;;;;;;44.67;24.13;;;;;;;-6.85;73.74;102125.25;5073317;28;20060;-81
2024/01/11 02:52:22;;;;;;;;;;;;;;;-6.83;73.77;102118.56;5074363;28;20066;-81
2024/01/11 02:55:25;;;;;;;40.47;23.60;;;;;;;-6.89;74.38;102120.84;5074369;28;19977;-81
2024/01/11 02:58:28;;;;;;;42.03;24.02;;;;;;;-6.86;74.28;102128.59;5074293;28;20090;-81
2024/01/11 03:01:32;;;;;;;48.65;25.77;;;;;;;-6.89;73.74;102128.47;5074160;28;20048;-81
2024/01/11 03:04:35;;;;;;;44.10;24.70;;;;;;;-7.02;74.77;102126.16;5074319;28;20137;-81
2024/01/11 03:07:39;;;;;;;41.00;24.15;;;;;;;-6.98;74.92;102127.19;5074243;28;20051;-82
2024/01/11 03:10:42;;;;;;;44.95;25.77;;;;;;;-7.13;75.17;102122.28;5074051;28;20180;-82
2024/01/11 03:13:45;;;;;;;42.22;23.27;;;;;;;-7.13;75.46;102114.66;5073248;28;20457;-82
2024/01/11 03:16:48;;;;;;;;;;;;;;;-7.06;75.37;102114.13;5074577;28;20109;-82
2024/01/11 03:19:52;;;;;;;40.22;24.73;;;;;;;-6.96;74.92;102115.41;5073990;28;20058;-82
2024/01/11 03:22:55;;;;;;;40.75;24.33;;;;;;;-6.95;74.04;102112.94;5073918;28;20078;-82
2024/01/11 03:25:58;;;;;;;39.42;21.65;;;;;;;-6.87;73.88;102110.72;5073898;28;20043;-82
2024/01/11 03:29:02;;;;;;;;;;;;;;;-6.95;73.94;102112.06;5074335;28;20039;-82
2024/01/11 03:32:05;;;;;;;39.55;23.90;;;;;;;-6.91;73.96;102107.19;5074024;28;19958;-82
2024/01/11 03:35:08;;;;;;;;;;;;;;;-7.07;74.11;102108.16;5073041;28;20581;-82
2024/01/11 03:38:12;;;;;;;40.03;23.27;;;;;;;-7.12;73.61;102108.75;5072034;28;19927;-82
2024/01/11 03:41:15;;;;;;;43.05;24.35;;;;;;;-7.05;74.05;102101.47;5072306;28;20079;-82
2024/01/11 03:44:19;;;;;;;45.58;25.98;;;;;;;-7.31;74.56;102097.75;5072551;28;20047;-82
2024/01/11 03:47:22;;;;;;;48.53;25.00;;;;;;;-7.22;74.42;102092.22;5073192;28;20092;-82
2024/01/11 03:50:25;;;;;;;;;;;;;;;-7.26;75.26;102097.97;5073617;28;20098;-82
2024/01/11 03:53:29;;;;;;;49.50;25.05;;;;;;;-7.23;74.45;102100.66;5073530;28;19947;-82
2024/01/11 03:56:32;;;;;;;44.65;24.10;;;;;;;-7.21;75.01;102093.06;5072397;28;20102;-82
2024/01/11 03:59:35;;;;;;;44.58;23.63;;;;;;;-7.22;74.86;102101.53;5072330;28;20508;-82
2024/01/11 04:02:39;;;;;;;45.35;24.45;;;;;;;-7.11;74.00;102096.13;5072575;28;20047;-82
2024/01/11 04:06:28;;;;;;;;;;;;;;;;;;;;;
2024/01/11 04:11:01;;;;;;;41.63;23.40;;;;;;;-7.30;74.26;102098.63;5073000;28;19918;-81
2024/01/11 04:14:58;;;;;;;43.40;23.65;;;;;;;-7.22;74.00;102104.06;5071994;28;20508;-81
2024/01/11 04:18:54;;;;;;;41.07;22.63;;;;;;;-7.75;75.92;102100.78;5071341;28;20043;-81
2024/01/11 04:22:08;;;;;;;45.07;24.53;;;;;;;-7.77;76.25;102102.38;5072914;28;20055;-82
2024/01/11 04:25:22;;;;;;;43.30;24.40;;;;;;;-7.66;76.10;102108.81;5071963;28;20097;-81
2024/01/11 04:28:34;;;;;;;46.37;23.67;;;;;;;-7.56;75.45;102110.13;5072159;28;20063;-81
2024/01/11 04:32:01;;;;;;;;;;;;;;;;;;;;;
2024/01/11 04:35:15;;;;;;;43.87;24.00;;;;;;;-7.32;74.51;102103.63;5072039;28;20044;-81
2024/01/11 04:38:21;;;;;;;45.47;25.07;;;;;;;-7.28;74.73;102102.09;5072576;28;20071;-81
2024/01/11 04:41:25;;;;;;;44.93;24.83;;;;;;;-7.44;74.55;102105.59;5071823;28;20043;-81
2024/01/11 04:44:40;;;;;;;44.67;24.10;;;;;;;-7.38;74.81;102105.88;5072621;28;20409;-82
2024/01/11 04:47:57;;;;;;;45.73;27.13;;;;;;;-7.42;74.86;102108.25;5072424;28;20475;-81
2024/01/11 04:51:20;;;;;;;40.87;22.13;;;;;;;-7.35;74.36;102126.38;5072294;28;20414;-82
2024/01/11 04:54:37;;;;;;;52.22;27.40;;;;;;;-7.23;74.26;102132.81;5072135;28;20059;-81
2024/01/11 04:57:41;;;;;;;47.30;24.07;;;;;;;-7.42;74.43;102131.97;5071616;28;20039;-81
2024/01/11 05:00:49;;;;;;;42.40;23.87;;;;;;;-7.56;75.42;102130.44;5071955;28;20067;-82
2024/01/11 05:03:55;;;;;;;49.57;23.90;;;;;;;-7.73;75.74;102120.34;5072543;28;20401;-82
2024/01/11 05:07:05;;;;;;;43.10;24.43;;;;;;;-7.57;75.15;102128.72;5072477;28;20051;-82
2024/01/11 05:10:09;;;;;;;39.40;22.67;;;;;;;-7.44;73.95;102125.94;5072386;28;20094;-82
2024/01/11 05:13:13;;;;;;;43.83;24.52;;;;;;;-7.35;73.78;102128.03;5072405;28;20095;-82
2024/01/11 05:16:29;;;;;;;46.10;24.60;;;;;;;-7.51;74.39;102134.06;5072392;28;20059;-82
2024/01/11 05:19:37;;;;;;;42.93;23.60;;;;;;;-7.37;74.22;102133.06;5072268;28;20456;-82
2024/01/11 05:22:42;;;;;;;43.83;24.33;;;;;;;-7.42;73.73;102134.50;5072554;28;20040;-82
2024/01/11 05:25:45;;;;;;;44.13;24.65;;;;;;;-7.38;73.77;102141.47;5072497;28;20478;-82
2024/01/11 05:28:48;;;;;;;42.13;24.35;;;;;;;-7.39;73.79;102136.31;5072237;28;20051;-78
2024/01/11 05:31:52;;;;;;;;;;;;;;;-7.37;73.71;102130.53;5072343;28;20079;-77
2024/01/11 05:34:55;;;;;;;45.07;23.13;;;;;;;-7.48;73.91;102134.22;5072079;28;20335;-80
2024/01/11 05:37:58;;;;;;;40.97;24.30;;;;;;;-7.30;73.04;102135.09;5072198;28;20098;-75
2024/01/11 05:41:02;;;;;;;48.80;23.95;;;;;;;-7.52;73.61;102145.03;5072320;28;20047;-77
2024/01/11 05:44:05;;;;;;;41.25;24.25;;;;;;;-7.54;73.92;102149.19;5072135;28;20056;-76
2024/01/11 05:47:08;;;;;;;43.17;24.60;;;;;;;-7.62;74.00;102151.38;5072161;28;20051;-77
2024/01/11 05:50:12;;;;;;;47.67;25.63;;;;;;;-7.53;73.69;102148.38;5062521;28;20460;-79
2024/01/11 05:53:17;;;;;;;45.17;24.17;;;;;;;-7.50;73.03;102148.50;5066247;28;20480;-77
2024/01/11 05:56:21;;;;;;;46.53;26.17;;;;;;;-7.62;73.61;102165.75;5064255;28;20051;-79
2024/01/11 05:59:24;;;;;;;44.00;24.45;;;;;;;-7.52;73.44;102168.78;5058166;28;20059;-78
2024/01/11 06:02:27;;;;;;;49.22;24.40;;;;;;;-7.51;73.73;102179.81;5073486;28;20102;-78
2024/01/11 06:05:30;;;;;;;46.92;23.95;;;;;;;-7.60;73.83;102184.44;5071013;28;20135;-77
2024/01/11 06:08:33;;;;;;;48.15;26.70;;;;;;;-7.86;74.28;102191.66;5075298;28;20036;-78
2024/01/11 06:11:37;;;;;;;39.70;21.27;;;;;;;-7.85;74.47;102195.97;5066290;28;20106;-79
2024/01/11 06:14:40;;;;;;;47.10;25.92;;;;;;;-8.02;74.56;102196.78;5055338;28;20051;-79
2024/01/11 06:17:43;;;;;;;44.13;25.73;;;;;;;-8.06;74.74;102207.59;5058406;28;20120;-74
2024/01/11 06:20:47;;;;;;;;;;;;;;;-8.00;74.57;102208.75;5065676;28;20139;-73
2024/01/11 06:23:50;;;;;;;36.92;19.63;;;;;;;-8.11;74.79;102219.16;5054991;28;19919;-73
2024/01/11 06:26:53;;;;;;;48.17;24.63;;;;;;;-7.96;74.75;102217.41;5061732;28;20093;-75
2024/01/11 06:34:17;;;;;;;43.20;22.13;;;;;;;-7.98;74.96;102222.38;5067599;28;20173;-83
2024/01/11 06:37:20;;;;;;;41.87;23.90;;;;;;;-8.20;75.56;102224.63;5054545;28;20067;-81
2024/01/11 06:40:24;;;;;;;;;;;;;;;-8.07;75.42;102227.03;5055314;28;20079;-81
2024/01/11 06:43:27;;;;;;;;;;;;;;;-7.90;74.82;102219.38;5055294;28;20424;-82
2024/01/11 06:46:30;;;;;;;42.70;23.53;;;;;;;-7.55;74.92;102219.44;5055055;28;20401;-83
2024/01/11 06:49:39;;;;;;;38.17;21.83;;;;;;;-7.53;73.09;102230.56;5054377;28;20075;-83
2024/01/11 06:52:43;;;;;;;44.23;23.90;;;;;;;-7.58;72.72;102229.44;5055626;28;20063;-82
2024/01/11 06:55:47;;;;;;;41.45;22.55;;;;;;;-7.73;73.12;102232.09;5054514;28;20048;-81
2024/01/11 06:58:50;;;;;;;40.37;23.80;;;;;;;-7.74;72.40;102237.13;5053752;28;20048;-81
2024/01/11 07:06:33;;;;;;;40.00;22.83;;;;;;;-7.93;73.73;102245.47;5052692;28;20032;-80
2024/01/11 07:09:37;;;;;;;48.50;23.67;;;;;;;-7.91;72.70;102233.75;5053845;28;20103;-77
2024/01/11 07:12:42;;;;;;;46.65;24.42;;;;;;;-7.75;73.30;102236.25;5054174;28;20445;-75
2024/01/11 07:15:45;;;;;;;46.77;26.37;;;;;;;-7.84;72.94;102238.31;5053991;28;20048;-76
2024/01/11 07:18:49;;;;;;;42.35;24.70;;;;;;;-7.88;73.30;102244.06;5053068;28;20110;-76
2024/01/11 07:21:54;;;;;;;45.97;24.80;;;;;;;-7.87;72.78;102240.72;5051654;28;20099;-77
2024/01/11 07:24:57;;;;;;;46.57;25.13;;;;;;;-8.02;72.97;102245.00;5052243;28;20044;-76
2024/01/11 07:28:01;;;;;;;48.35;25.15;;;;;;;-7.86;72.61;102244.13;5052055;28;20043;-74
2024/01/11 07:31:05;;;;;;;42.00;24.07;;;;;;;-7.73;72.43;102241.38;5052681;28;20191;-75
2024/01/11 07:34:13;;;;;;;45.27;24.73;;;;;;;-7.89;73.08;102246.50;5052522;28;20414;-75
2024/01/11 07:37:16;;;;;;;42.50;25.03;;;;;;;-7.90;72.67;102248.19;5052172;28;20430;-75
2024/01/11 07:40:19;;;;;;;47.78;24.80;;;;;;;-8.16;73.54;102251.94;5051738;28;20537;-76
2024/01/11 07:43:22;;;;;;;;;;;;;;;-8.08;73.22;102242.16;5052413;28;20052;-76
2024/01/11 07:46:26;;;;;;;47.58;26.48;;;;;;;-8.09;73.27;102243.81;5073550;28;20415;-77
2024/01/11 07:49:29;;;;;;;47.30;25.08;;;;;;;-8.11;73.73;102236.91;5050453;28;20068;-77
2024/01/11 07:52:33;;;;;;;45.35;25.75;;;;;;;-8.44;74.88;102234.44;5052091;28;20173;-77
2024/01/11 07:55:37;;;;;;;50.03;25.07;;;;;;;-8.40;74.77;102236.31;5051615;28;20043;-80
2024/01/11 07:58:41;;;;;;;53.07;26.63;;;;;;;-8.29;74.58;102232.66;5051700;28;20405;-77
2024/01/11 08:01:45;;;;;;;42.40;23.40;;;;;;;-8.05;74.18;102237.25;5051465;28;20048;-76
2024/01/11 08:04:48;;;;;;;47.43;24.23;;;;;;;-7.84;72.99;102230.72;5051640;28;20456;-79
2024/01/11 08:07:52;;;;;;;43.10;23.35;;;;;;;-7.82;73.58;102259.56;5051279;28;20099;-79
2024/01/11 08:10:55;;;;;;;41.53;23.23;;;;;;;-7.81;73.52;102248.63;5073051;28;20456;-79
2024/01/11 08:13:58;;;;;;;44.83;25.00;;;;;;;-7.78;73.37;102251.34;5050440;28;20102;-77
2024/01/11 08:17:04;;;;;;;;;;;;;;;-7.68;72.85;102251.78;5051301;28;20040;-77
2024/01/11 08:20:08;;;;;;;43.17;21.87;;;;;;;-7.85;73.90;102249.28;5050385;28;20010;-77
2024/01/11 08:23:11;;;;;;;42.17;22.23;;;;;;;-7.67;73.87;102248.44;5056289;28;20146;-78
2024/01/11 08:26:15;;;;;;;41.83;23.58;;;;;;;-7.73;74.13;102254.09;5055343;28;20039;-79
2024/01/11 08:29:19;;;;;;;38.63;23.97;;;;;;;-7.57;73.34;102270.97;5062023;28;20043;-73
2024/01/11 08:32:26;;;;;;;43.40;22.27;;;;;;;-7.75;74.36;102263.31;5059121;28;20058;-78
2024/01/11 08:35:32;;;;;;;39.67;23.00;;;;;;;-7.73;74.09;102254.97;5055632;28;20182;-77
2024/01/11 08:38:35;;;;;;;42.88;23.70;;;;;;;-8.33;77.45;102278.06;5070874;28;20047;-68
2024/01/11 08:41:39;;;;;;;56.50;27.60;;;;;;;-8.56;79.13;102279.44;5069912;28;20106;-68
2024/01/11 08:44:42;;;;;;;41.03;24.95;;;;;;;-8.54;79.95;102277.88;5062671;28;20063;-69
2024/01/11 08:47:46;;;;;;;;;;;;;;;-8.06;78.64;102293.88;5054803;28;20139;-69
2024/01/11 08:50:49;;;;;;;36.03;19.35;;;;;;;-8.15;77.81;102285.78;5055719;28;19927;-68
2024/01/11 08:53:53;;;;;;;49.10;25.58;;;;;;;-7.84;77.42;102289.13;5058891;28;20124;-71
2024/01/11 08:56:56;;;;;;;50.08;25.40;;;;;;;-7.38;76.36;102280.38;5063306;28;20082;-78
2024/01/11 08:59:59;;;;;;;59.50;30.42;;;;;;;-7.19;74.82;102265.19;5059552;28;20056;-72
2024/01/11 09:03:08;;;;;;;52.58;27.05;;;;;;;-7.07;73.78;102275.97;5059941;28;20505;-73
2024/01/11 09:06:22;;;;;;;55.83;30.47;;;;;;;-7.09;74.27;102277.53;5063834;28;20406;-72
2024/01/11 09:09:28;;;;;;;54.10;27.10;;;;;;;-6.99;73.55;102272.91;5050921;28;20044;-71
2024/01/11 09:12:33;;;;;;;48.07;27.03;;;;;;;-6.96;74.31;102267.97;5061530;28;20064;-71
2024/01/11 09:15:37;;;;;;;46.07;26.73;;;;;;;-6.90;73.68;102263.16;5054778;28;20055;-71
2024/01/11 09:18:40;;;;;;;77.95;30.08;;;;;;;-7.07;74.38;102264.94;5050260;28;20044;-71
2024/01/11 09:21:43;;;;;;;44.42;24.25;;;;;;;-7.06;74.84;102266.66;5060682;28;20087;-77
2024/01/11 09:29:05;;;;;;;51.83;27.80;;;;;;;-6.82;74.80;102262.72;5063953;28;20452;-73
2024/01/11 09:32:08;;;;;;;44.75;24.75;;;;;;;-6.74;74.84;102265.63;5050089;28;20072;-72
2024/01/11 09:35:12;;;;;;;46.75;23.58;;;;;;;-6.76;74.76;102269.78;5059912;28;20050;-76
2024/01/11 09:38:15;;;;;;;42.83;23.95;;;;;;;-6.72;75.25;102263.16;5063739;28;20051;-75
2024/01/11 09:41:18;;;;;;;46.65;25.77;;;;;;;-6.71;74.99;102264.88;5053831;28;20048;-76
2024/01/11 09:44:23;;;;;;;40.45;23.02;;;;;;;-6.64;74.64;102272.88;5065210;28;20043;-76
2024/01/11 09:47:26;;;;;;;43.97;23.90;;;;;;;-6.56;74.68;102280.88;5056164;28;20094;-76
2024/01/11 09:50:30;;;;;;;39.43;24.57;;;;;;;-6.47;74.24;102281.28;5059206;28;20144;-75
2024/01/11 09:53:34;;;;;;;45.63;24.08;;;;;;;-6.50;75.46;102276.06;5071107;28;20374;-75
2024/01/11 09:56:38;;;;;;;54.87;29.77;;;;;;;-6.46;75.16;102277.94;5074060;28;20090;-75
2024/01/11 09:59:43;;;;;;;41.07;24.40;;;;;;;-6.42;75.33;102274.72;5070902;28;20090;-75
2024/01/11 10:02:46;;;;;;;41.03;24.27;;;;;;;-6.37;75.30;102272.38;5061291;28;20063;-74
2024/01/11 10:05:53;;;;;;;41.23;23.80;;;;;;;-6.25;75.73;102277.13;5061563;28;20402;-75
2024/01/11 10:08:56;;;;;;;44.27;24.77;;;;;;;-6.21;75.79;102276.50;5063985;28;20047;-74
2024/01/11 10:11:59;;;;;;;37.22;22.58;;;;;;;-6.23;76.23;102266.22;5056113;28;20102;-74
2024/01/11 10:15:10;;;;;;;41.78;24.52;;;;;;;-6.09;75.68;102269.41;5066493;28;20740;-74
2024/01/11 10:18:13;;;;;;;40.80;23.13;;;;;;;-5.94;75.80;102258.97;5059831;28;20429;-75
2024/01/11 10:21:20;;;;;;;84.70;38.67;;;;;;;-5.90;75.87;102254.06;5062109;28;20059;-75
2024/01/11 10:24:26;;;;;;;39.43;22.80;;;;;;;-5.97;76.59;102236.78;5066439;28;20126;-75
2024/01/11 10:27:29;;;;;;;43.33;23.27;;;;;;;-5.82;76.24;102243.31;5059338;28;20076;-75
2024/01/11 10:30:33;;;;;;;43.00;25.13;;;;;;;-6.17;78.79;102229.97;5056440;28;20517;-75
2024/01/11 10:33:37;;;;;;;;;;;;;;;-5.91;78.13;102228.50;5069537;28;20117;-75
2024/01/11 10:36:40;;;;;;;41.00;23.88;;;;;;;-5.76;78.36;102218.09;5053102;28;19947;-76
2024/01/11 10:39:44;;;;;;;41.77;25.83;;;;;;;-5.62;77.78;102220.38;5053271;28;20048;-75
2024/01/11 10:42:51;;;;;;;44.97;24.53;;;;;;;-5.71;79.40;102230.22;5058492;28;20421;-73
2024/01/11 10:45:59;;;;;;;42.87;23.07;;;;;;;-5.56;78.86;102231.66;5071950;28;20067;-74
2024/01/11 10:49:04;;;;;;;43.07;23.97;;;;;;;-5.47;79.05;102232.03;5072560;28;20062;-74
2024/01/11 10:52:08;;;;;;;38.13;23.57;;;;;;;-5.28;77.74;102221.75;5071702;28;20200;-77
2024/01/11 10:55:11;;;;;;;42.43;23.27;;;;;;;-5.22;78.00;102219.44;5072428;28;20054;-74
2024/01/11 10:58:15;;;;;;;41.37;24.23;;;;;;;-5.12;78.99;102220.69;5071219;28;20051;-74
2024/01/11 11:01:20;;;;;;;43.97;24.98;;;;;;;-5.12;78.68;102214.72;5071279;28;20414;-73
2024/01/11 11:04:25;;;;;;;48.40;29.42;;;;;;;-5.10;79.35;102219.06;5071697;28;20051;-73
2024/01/11 11:07:28;;;;;;;63.25;37.20;;;;;;;-5.34;81.17;102218.97;5072235;28;20116;-72
2024/01/11 11:10:34;;;;;;;56.38;33.55;;;;;;;-5.22;80.72;102213.50;5072610;28;20128;-73
2024/01/11 11:13:38;;;;;;;56.88;32.75;;;;;;;-5.17;81.20;102204.31;5072927;28;20101;-71
2024/01/11 11:16:42;;;;;;;54.63;31.85;;;;;;;-4.90;80.16;102191.75;5072073;28;20206;-73
2024/01/11 11:19:46;;;;;;;43.67;24.80;;;;;;;-4.86;80.15;102192.75;5072436;28;20147;-72
2024/01/11 11:23:10;;;;;;;45.80;26.35;;;;;;;-4.86;81.35;102196.16;5072392;28;20048;-71
2024/01/11 11:26:16;;;;;;;50.00;26.77;;;;;;;-4.81;81.14;102191.25;5072290;28;20078;-70
2024/01/11 11:29:20;;;;;;;42.95;26.92;;;;;;;-4.59;81.60;102182.69;5072365;28;20048;-76
2024/01/11 11:32:42;;;;;;;46.42;25.85;;;;;;;-4.59;82.36;102168.25;5072094;28;20516;-74
2024/01/11 11:35:47;;;;;;;44.38;26.10;;;;;;;-4.50;82.54;102189.00;5071594;28;20051;-70
2024/01/11 11:38:50;;;;;;;42.78;23.98;;;;;;;-4.23;81.22;102184.00;5071942;28;20067;-70
2024/01/11 11:41:57;;;;;;;41.35;24.20;;;;;;;-4.18;80.96;102181.56;5072113;28;20416;-71
2024/01/11 11:45:01;;;;;;;42.95;25.50;;;;;;;-4.17;81.80;102175.69;5072478;28;20051;-70
2024/01/11 11:48:28;;;;;;;47.22;25.77;;;;;;;-4.08;80.69;102173.44;5071657;28;20098;-71
2024/01/11 11:51:32;;;;;;;40.90;23.25;;;;;;;-4.03;80.99;102181.25;5071608;28;20558;-71
2024/01/11 11:54:36;;;;;;;42.28;23.83;;;;;;;-3.94;80.91;102175.59;5069740;28;20140;-71
2024/01/11 11:57:42;;;;;;;40.67;25.27;;;;;;;-4.01;81.23;102172.81;5071418;28;20483;-70
2024/01/11 12:00:47;;;;;;;45.92;25.48;;;;;;;-3.92;82.26;102167.16;5070934;28;20060;-71
2024/01/11 12:03:50;;;;;;;40.70;25.25;;;;;;;-3.86;81.55;102161.34;5070254;28;20573;-72
2024/01/11 12:06:54;;;;;;;38.25;22.70;;;;;;;-3.83;81.80;102164.03;5070624;28;20196;-73
2024/01/11 12:09:57;;;;;;;40.33;23.33;;;;;;;-3.74;81.50;102161.75;5070862;28;20175;-72
2024/01/11 12:13:00;;;;;;;37.20;21.70;;;;;;;-3.65;81.28;102164.63;5070888;28;20043;-72
2024/01/11 12:16:03;;;;;;;32.67;20.92;;;;;;;-3.70;82.26;102161.06;5070734;28;20448;-72
2024/01/11 12:19:07;;;;;;;38.80;22.27;;;;;;;-3.65;82.45;102154.41;5071408;28;20104;-72
2024/01/11 12:22:10;;;;;;;32.20;20.80;;;;;;;-3.57;82.43;102152.09;5071412;28;20465;-72
2024/01/11 12:25:14;;;;;;;33.75;20.15;;;;;;;-3.52;82.21;102153.09;5071562;28;20075;-74
2024/01/11 12:28:17;;;;;;;34.17;20.77;;;;;;;-3.45;81.78;102152.47;5071438;28;20120;-72
2024/01/11 12:31:21;;;;;;;34.35;22.08;;;;;;;-3.47;81.60;102166.03;5071386;28;20203;-73
2024/01/11 12:34:26;;;;;;;85.35;48.45;;;;;;;-3.46;80.96;102157.53;5071296;28;20540;-72
2024/01/11 12:37:30;;;;;;;68.93;41.08;;;;;;;-3.39;80.73;102149.22;5071405;28;20417;-72
2024/01/11 12:40:35;;;;;;;56.95;32.30;;;;;;;-3.58;81.90;102146.09;5071395;28;20129;-71
2024/01/11 12:43:38;;;;;;;45.00;28.83;;;;;;;-3.27;81.16;102141.94;5071118;28;20087;-71
2024/01/11 12:46:42;;;;;;;38.58;24.70;;;;;;;-3.28;81.74;102135.09;5071123;28;20120;-73
2024/01/11 12:49:48;;;;;;;39.40;23.20;;;;;;;-3.15;80.91;102139.75;5070264;28;20499;-71
2024/01/11 12:53:24;;;;;;;46.55;26.90;;;;;;;-3.17;80.81;102128.59;5071362;28;20070;-72
2024/01/11 12:56:27;;;;;;;54.03;32.25;;;;;;;-3.14;80.52;102131.25;5053036;28;20075;-72
2024/01/11 12:59:30;;;;;;;52.17;28.38;;;;;;;-3.06;80.50;102123.81;5070823;28;20402;-72
2024/01/11 13:02:34;;;;;;;61.45;37.28;;;;;;;-3.02;80.04;102119.66;5070994;28;20113;-72
2024/01/11 13:05:37;;;;;;;53.67;31.55;;;;;;;-3.01;80.72;102108.56;5070854;28;20059;-71
2024/01/11 13:08:41;;;;;;;57.17;33.70;;;;;;;-2.95;79.92;102109.63;5070999;28;20086;-71
2024/01/11 13:11:44;;;;;;;43.85;28.65;;;;;;;-2.89;79.27;102120.03;5072998;28;20102;-72
2024/01/11 13:14:50;;;;;;;47.78;29.38;;;;;;;-2.92;79.59;102107.16;5075073;28;20044;-73
2024/01/11 13:17:53;;;;;;;48.58;29.95;;;;;;;-2.90;79.27;102107.22;5074930;28;20070;-74
2024/01/11 13:20:57;;;;;;;47.47;29.48;;;;;;;-2.82;78.86;102111.69;5074919;28;20123;-73
2024/01/11 13:24:00;;;;;;;48.28;29.90;;;;;;;-2.83;78.52;102119.34;5074741;28;20044;-74
2024/01/11 13:27:04;;;;;;;49.85;31.55;;;;;;;-2.80;78.22;102119.44;5074738;28;20043;-73
2024/01/11 13:30:08;;;;;;;53.38;33.03;;;;;;;-2.79;77.82;102121.16;5074739;28;20078;-75
2024/01/11 13:33:12;;;;;;;47.75;29.17;;;;;;;-2.76;78.01;102126.38;5074835;28;20109;-73
2024/01/11 13:36:16;;;;;;;43.65;27.48;;;;;;;-2.76;78.78;102120.38;5075122;28;20062;-74
2024/01/11 13:39:20;;;;;;;44.35;28.15;;;;;;;-2.77;79.62;102124.63;5074733;28;20047;-74
2024/01/11 13:42:23;;;;;;;44.13;26.48;;;;;;;-2.67;78.27;102126.63;5074719;28;20531;-72
2024/01/11 13:45:27;;;;;;;41.22;26.90;;;;;;;-2.65;78.50;102137.78;5074466;28;20043;-74
2024/01/11 13:48:32;;;;;;;47.63;27.38;;;;;;;-2.60;78.26;102138.75;5074169;28;20059;-75
2024/01/11 13:51:35;;;;;;;45.58;24.30;;;;;;;-2.62;79.23;102135.31;5073714;28;20051;-74
2024/01/11 13:54:39;;;;;;;40.65;25.25;;;;;;;-2.62;79.82;102137.88;5074346;28;20066;-72
2024/01/11 13:57:42;;;;;;;46.20;25.65;;;;;;;-2.65;80.44;102135.22;5074126;28;20516;-73
2024/01/11 14:00:45;;;;;;;39.40;23.73;;;;;;;-2.65;81.01;102124.97;5074117;28;20051;-72
2024/01/11 14:03:48;;;;;;;44.80;24.25;;;;;;;-2.59;81.12;102125.13;5074031;28;20048;-72
2024/01/11 14:06:52;;;;;;;37.38;21.58;;;;;;;-2.60;81.39;102118.28;5074235;28;20508;-72
2024/01/11 14:09:55;;;;;;;;;;;;;;;-2.60;80.43;102120.84;5074152;28;20123;-72
2024/01/11 14:13:02;;;;;;;57.08;31.38;;;;;;;-2.50;80.17;102118.53;5073733;28;20321;-72
2024/01/11 14:16:05;;;;;;;49.60;28.60;;;;;;;-2.49;78.84;102118.59;5073824;28;20078;-73
2024/01/11 14:19:08;;;;;;;86.93;46.58;;;;;;;-2.45;78.85;102112.72;5073629;28;20097;-70
2024/01/11 14:22:11;;;;;;;59.08;37.17;;;;;;;-2.40;79.84;102106.00;5073176;28;20074;-69
2024/01/11 14:25:18;;;;;;;;;;;;;;;-2.40;79.73;102105.13;5073977;28;20070;-72